Main page
METAR-TAF:

METAR-TAF

Airports :

Houari Boumediene Airport

Algiers, Algeria

latitude: 36-43N, longitude: 003-15E, elevation: 25 m

Current weather observation

The report was made 28 minutes ago, at 23:30 UTC
Wind 2 kt from the South
Temperature 14°C
Humidity 94%
Pressure 1019 hPa
Visibility: 6000 m
Few clouds at a height of 2000 ft
Scattered clouds at a height of 20000 ft

METAR: DAAG 222330Z 17002KT 6000 FEW020 SCT200 14/13 Q1019

Time: 00:58 (23:58 UTC)

Forecast

The report was made 58 minutes ago, at 23:00 UTC
Forecast valid from 23 at 00 UTC to 23 at 24 UTC
Wind 2 kt from variable directions
Visibility 10 km or more
Few clouds at a height of 2000 ft
Becoming
from 23 at 09 UTC to 23 at 12 UTC
Wind 10 kt from the North/Northeast
Becoming
from 23 at 20 UTC to 23 at 22 UTC
Wind 2 kt from variable directions

TAF: DAAG 222300Z 2300/2324 VRB02KT 9999 FEW020 BECMG 2309/2312 03010KT BECMG 2320/2322 VRB02KT

Weather observations and forecasts of more than 4000 airports (METAR and TAF reports).

The available stations are represented by yellow and red dots on the map.

Hover mouse over dot to see the name of the station.

Then click to see weather observations and forecasts.

To change the map : click on the green buttons with a black cross to zoom in, on the green button with a dash to zoom out, or on the green arrows for adjacent maps.


METAR-TAF: